sensor_id;sensor_type;location;lat;lon;timestamp;temperature;humidity
6758;DHT22;3416;53.074;8.822;2023-02-22T00:14:26;10.90;99.90
6758;DHT22;3416;53.074;8.822;2023-02-22T00:16:59;11.00;99.90
6758;DHT22;3416;53.074;8.822;2023-02-22T00:19:29;10.80;99.90
6758;DHT22;3416;53.074;8.822;2023-02-22T00:32:12;10.70;99.90
6758;DHT22;3416;53.074;8.822;2023-02-22T00:34:45;10.70;99.90
6758;DHT22;3416;53.074;8.822;2023-02-22T00:37:23;10.70;99.90
6758;DHT22;3416;53.074;8.822;2023-02-22T00:39:56;10.70;99.90
6758;DHT22;3416;53.074;8.822;2023-02-22T00:42:27;10.70;99.90
6758;DHT22;3416;53.074;8.822;2023-02-22T00:44:56;10.70;99.90
6758;DHT22;3416;53.074;8.822;2023-02-22T00:47:29;10.70;99.90
6758;DHT22;3416;53.074;8.822;2023-02-22T00:50:01;10.60;99.90
6758;DHT22;3416;53.074;8.822;2023-02-22T00:56:18;10.50;99.90
6758;DHT22;3416;53.074;8.822;2023-02-22T00:58:48;10.60;99.90
6758;DHT22;3416;53.074;8.822;2023-02-22T01:01:22;10.70;99.90
6758;DHT22;3416;53.074;8.822;2023-02-22T01:04:00;10.60;99.90
6758;DHT22;3416;53.074;8.822;2023-02-22T01:06:31;10.60;99.90
6758;DHT22;3416;53.074;8.822;2023-02-22T01:09:01;10.50;99.90
6758;DHT22;3416;53.074;8.822;2023-02-22T01:11:33;10.60;99.90
6758;DHT22;3416;53.074;8.822;2023-02-22T01:14:03;10.50;99.90
6758;DHT22;3416;53.074;8.822;2023-02-22T01:16:34;10.60;99.90
6758;DHT22;3416;53.074;8.822;2023-02-22T01:19:06;10.50;99.90
6758;DHT22;3416;53.074;8.822;2023-02-22T01:21:40;10.50;99.90
6758;DHT22;3416;53.074;8.822;2023-02-22T01:31:07;10.40;99.90
6758;DHT22;3416;53.074;8.822;2023-02-22T01:33:49;10.30;99.90
6758;DHT22;3416;53.074;8.822;2023-02-22T01:36:32;10.30;99.90
6758;DHT22;3416;53.074;8.822;2023-02-22T01:39:07;10.30;99.90
6758;DHT22;3416;53.074;8.822;2023-02-22T01:41:37;10.20;99.90
6758;DHT22;3416;53.074;8.822;2023-02-22T03:17:15;10.00;99.90
6758;DHT22;3416;53.074;8.822;2023-02-22T03:19:50;10.10;99.90
6758;DHT22;3416;53.074;8.822;2023-02-22T03:22:23;10.10;99.90
6758;DHT22;3416;53.074;8.822;2023-02-22T03:25:00;10.10;99.90
6758;DHT22;3416;53.074;8.822;2023-02-22T03:27:37;10.00;99.90
6758;DHT22;3416;53.074;8.822;2023-02-22T03:30:18;10.00;99.90
6758;DHT22;3416;53.074;8.822;2023-02-22T03:32:55;10.00;99.90
6758;DHT22;3416;53.074;8.822;2023-02-22T03:35:30;10.00;99.90
6758;DHT22;3416;53.074;8.822;2023-02-22T03:38:02;10.00;99.90
6758;DHT22;3416;53.074;8.822;2023-02-22T03:40:36;10.10;99.90
6758;DHT22;3416;53.074;8.822;2023-02-22T03:43:12;10.10;99.90
6758;DHT22;3416;53.074;8.822;2023-02-22T03:45:45;10.10;99.90
6758;DHT22;3416;53.074;8.822;2023-02-22T03:48:24;10.10;99.90
6758;DHT22;3416;53.074;8.822;2023-02-22T03:51:04;10.00;99.90
6758;DHT22;3416;53.074;8.822;2023-02-22T03:53:40;10.00;99.90
6758;DHT22;3416;53.074;8.822;2023-02-22T04:23:58;9.50;99.90
6758;DHT22;3416;53.074;8.822;2023-02-22T04:26:29;9.40;99.90
6758;DHT22;3416;53.074;8.822;2023-02-22T04:28:58;9.50;99.90
6758;DHT22;3416;53.074;8.822;2023-02-22T04:31:29;9.40;99.90
6758;DHT22;3416;53.074;8.822;2023-02-22T04:33:57;9.40;99.90
6758;DHT22;3416;53.074;8.822;2023-02-22T05:01:15;9.00;99.90
6758;DHT22;3416;53.074;8.822;2023-02-22T05:03:43;8.90;99.90
6758;DHT22;3416;53.074;8.822;2023-02-22T05:06:17;8.80;99.90
6758;DHT22;3416;53.074;8.822;2023-02-22T05:08:49;8.90;99.90
6758;DHT22;3416;53.074;8.822;2023-02-22T05:11:27;8.80;99.90
6758;DHT22;3416;53.074;8.822;2023-02-22T05:13:55;8.70;99.90
6758;DHT22;3416;53.074;8.822;2023-02-22T05:16:26;8.70;99.90
6758;DHT22;3416;53.074;8.822;2023-02-22T05:18:57;8.70;99.90
6758;DHT22;3416;53.074;8.822;2023-02-22T05:21:27;8.70;99.90
6758;DHT22;3416;53.074;8.822;2023-02-22T05:23:56;8.70;99.90
6758;DHT22;3416;53.074;8.822;2023-02-22T05:26:37;8.60;99.90
6758;DHT22;3416;53.074;8.822;2023-02-22T05:29:05;8.70;99.90
6758;DHT22;3416;53.074;8.822;2023-02-22T05:31:49;8.70;99.90
6758;DHT22;3416;53.074;8.822;2023-02-22T05:34:19;8.60;99.90
6758;DHT22;3416;53.074;8.822;2023-02-22T05:36:48;8.70;99.90
6758;DHT22;3416;53.074;8.822;2023-02-22T05:39:25;8.70;99.90
6758;DHT22;3416;53.074;8.822;2023-02-22T05:42:01;8.80;99.90
6758;DHT22;3416;53.074;8.822;2023-02-22T05:44:31;8.80;99.90
6758;DHT22;3416;53.074;8.822;2023-02-22T05:47:07;8.70;99.90
6758;DHT22;3416;53.074;8.822;2023-02-22T05:49:36;8.70;99.90
6758;DHT22;3416;53.074;8.822;2023-02-22T05:52:14;8.70;99.90
6758;DHT22;3416;53.074;8.822;2023-02-22T05:54:44;8.60;99.90
6758;DHT22;3416;53.074;8.822;2023-02-22T05:57:18;8.60;99.90
6758;DHT22;3416;53.074;8.822;2023-02-22T05:59:53;8.60;99.90
6758;DHT22;3416;53.074;8.822;2023-02-22T06:02:37;8.60;99.90
6758;DHT22;3416;53.074;8.822;2023-02-22T06:05:10;8.60;99.90
6758;DHT22;3416;53.074;8.822;2023-02-22T06:07:50;8.60;99.90
6758;DHT22;3416;53.074;8.822;2023-02-22T06:10:21;8.60;99.90
6758;DHT22;3416;53.074;8.822;2023-02-22T06:16:32;8.60;99.90
6758;DHT22;3416;53.074;8.822;2023-02-22T06:19:20;8.70;99.90
6758;DHT22;3416;53.074;8.822;2023-02-22T06:22:13;8.70;99.90
6758;DHT22;3416;53.074;8.822;2023-02-22T06:24:43;8.70;99.90
6758;DHT22;3416;53.074;8.822;2023-02-22T06:27:14;8.70;99.90
6758;DHT22;3416;53.074;8.822;2023-02-22T06:29:44;8.70;99.90
6758;DHT22;3416;53.074;8.822;2023-02-22T06:32:18;8.70;99.90
6758;DHT22;3416;53.074;8.822;2023-02-22T06:34:47;8.80;99.90
6758;DHT22;3416;53.074;8.822;2023-02-22T06:37:22;8.80;99.90
6758;DHT22;3416;53.074;8.822;2023-02-22T06:39:50;8.90;99.90
6758;DHT22;3416;53.074;8.822;2023-02-22T06:59:16;9.30;99.90
6758;DHT22;3416;53.074;8.822;2023-02-22T07:01:48;9.30;99.90
6758;DHT22;3416;53.074;8.822;2023-02-22T07:04:19;9.30;99.90
6758;DHT22;3416;53.074;8.822;2023-02-22T07:06:47;9.30;99.90
6758;DHT22;3416;53.074;8.822;2023-02-22T07:16:28;9.50;99.90
6758;DHT22;3416;53.074;8.822;2023-02-22T07:18:56;9.60;99.90
6758;DHT22;3416;53.074;8.822;2023-02-22T07:21:25;9.70;99.90
6758;DHT22;3416;53.074;8.822;2023-02-22T07:24:07;9.70;99.90
6758;DHT22;3416;53.074;8.822;2023-02-22T07:26:48;9.80;99.90
6758;DHT22;3416;53.074;8.822;2023-02-22T07:29:34;10.00;99.90
6758;DHT22;3416;53.074;8.822;2023-02-22T07:32:05;10.30;99.90
6758;DHT22;3416;53.074;8.822;2023-02-22T07:34:40;10.60;99.90
6758;DHT22;3416;53.074;8.822;2023-02-22T07:37:14;10.90;99.90
6758;DHT22;3416;53.074;8.822;2023-02-22T07:39:45;11.00;99.90
6758;DHT22;3416;53.074;8.822;2023-02-22T07:42:13;11.20;99.90
6758;DHT22;3416;53.074;8.822;2023-02-22T07:44:47;11.20;99.90
6758;DHT22;3416;53.074;8.822;2023-02-22T07:47:17;11.40;99.90
6758;DHT22;3416;53.074;8.822;2023-02-22T07:49:45;11.70;99.90
6758;DHT22;3416;53.074;8.822;2023-02-22T07:55:52;11.90;99.90
6758;DHT22;3416;53.074;8.822;2023-02-22T07:58:22;11.90;99.90
6758;DHT22;3416;53.074;8.822;2023-02-22T08:00:49;11.90;99.90
6758;DHT22;3416;53.074;8.822;2023-02-22T08:03:20;12.10;99.90
6758;DHT22;3416;53.074;8.822;2023-02-22T08:05:49;12.20;99.90
6758;DHT22;3416;53.074;8.822;2023-02-22T08:08:20;12.30;99.90
6758;DHT22;3416;53.074;8.822;2023-02-22T08:10:48;12.40;99.90
6758;DHT22;3416;53.074;8.822;2023-02-22T08:13:16;12.30;99.90
6758;DHT22;3416;53.074;8.822;2023-02-22T08:15:45;12.30;99.90
6758;DHT22;3416;53.074;8.822;2023-02-22T08:18:16;12.60;99.90
6758;DHT22;3416;53.074;8.822;2023-02-22T08:20:46;12.60;99.90
6758;DHT22;3416;53.074;8.822;2023-02-22T08:23:14;12.90;99.90
6758;DHT22;3416;53.074;8.822;2023-02-22T08:25:42;13.00;99.90
6758;DHT22;3416;53.074;8.822;2023-02-22T08:28:13;13.40;99.90
6758;DHT22;3416;53.074;8.822;2023-02-22T08:30:41;13.30;99.90
6758;DHT22;3416;53.074;8.822;2023-02-22T08:33:08;13.10;99.90
6758;DHT22;3416;53.074;8.822;2023-02-22T08:35:38;13.00;99.90
6758;DHT22;3416;53.074;8.822;2023-02-22T08:38:15;12.80;99.90
6758;DHT22;3416;53.074;8.822;2023-02-22T08:40:42;12.50;99.90
6758;DHT22;3416;53.074;8.822;2023-02-22T08:43:10;12.50;99.90
6758;DHT22;3416;53.074;8.822;2023-02-22T08:45:37;12.40;99.90
6758;DHT22;3416;53.074;8.822;2023-02-22T08:48:05;12.50;99.90
6758;DHT22;3416;53.074;8.822;2023-02-22T08:50:32;12.60;99.90
6758;DHT22;3416;53.074;8.822;2023-02-22T08:53:08;12.60;99.90
6758;DHT22;3416;53.074;8.822;2023-02-22T08:55:38;12.70;99.90
6758;DHT22;3416;53.074;8.822;2023-02-22T08:58:06;12.70;99.90
6758;DHT22;3416;53.074;8.822;2023-02-22T09:00:36;12.80;99.90
6758;DHT22;3416;53.074;8.822;2023-02-22T09:03:05;12.80;99.90
6758;DHT22;3416;53.074;8.822;2023-02-22T09:05:32;12.80;99.90
6758;DHT22;3416;53.074;8.822;2023-02-22T09:08:00;12.70;99.90
6758;DHT22;3416;53.074;8.822;2023-02-22T09:10:30;12.80;99.90
6758;DHT22;3416;53.074;8.822;2023-02-22T09:12:58;12.60;99.90
6758;DHT22;3416;53.074;8.822;2023-02-22T09:15:25;12.50;99.90
6758;DHT22;3416;53.074;8.822;2023-02-22T09:17:53;12.50;99.90
6758;DHT22;3416;53.074;8.822;2023-02-22T09:20:21;12.40;99.90
6758;DHT22;3416;53.074;8.822;2023-02-22T09:22:49;12.50;99.90
6758;DHT22;3416;53.074;8.822;2023-02-22T09:25:18;12.50;99.90
6758;DHT22;3416;53.074;8.822;2023-02-22T09:27:48;12.60;99.90
6758;DHT22;3416;53.074;8.822;2023-02-22T09:30:19;12.50;99.90
6758;DHT22;3416;53.074;8.822;2023-02-22T09:32:49;12.50;99.90
6758;DHT22;3416;53.074;8.822;2023-02-22T09:35:16;12.70;99.90
6758;DHT22;3416;53.074;8.822;2023-02-22T09:37:43;13.20;99.90
6758;DHT22;3416;53.074;8.822;2023-02-22T09:40:14;13.80;99.90
6758;DHT22;3416;53.074;8.822;2023-02-22T09:43:01;14.30;99.90
6758;DHT22;3416;53.074;8.822;2023-02-22T09:45:33;14.80;99.90
6758;DHT22;3416;53.074;8.822;2023-02-22T09:48:05;15.30;99.90
6758;DHT22;3416;53.074;8.822;2023-02-22T09:50:37;16.10;99.90
6758;DHT22;3416;53.074;8.822;2023-02-22T09:53:19;17.00;99.90
6758;DHT22;3416;53.074;8.822;2023-02-22T09:55:55;17.80;99.90
6758;DHT22;3416;53.074;8.822;2023-02-22T09:58:29;17.90;99.90
6758;DHT22;3416;53.074;8.822;2023-02-22T10:01:20;17.50;99.90
6758;DHT22;3416;53.074;8.822;2023-02-22T10:03:57;17.50;99.90
6758;DHT22;3416;53.074;8.822;2023-02-22T10:06:25;17.50;99.90
6758;DHT22;3416;53.074;8.822;2023-02-22T10:08:56;17.00;99.90
6758;DHT22;3416;53.074;8.822;2023-02-22T10:11:34;16.80;99.90
6758;DHT22;3416;53.074;8.822;2023-02-22T10:14:21;16.90;99.90
6758;DHT22;3416;53.074;8.822;2023-02-22T10:16:58;16.70;99.90
6758;DHT22;3416;53.074;8.822;2023-02-22T10:19:31;16.40;99.90
6758;DHT22;3416;53.074;8.822;2023-02-22T10:22:19;16.30;99.90
6758;DHT22;3416;53.074;8.822;2023-02-22T10:24:55;16.40;99.90
6758;DHT22;3416;53.074;8.822;2023-02-22T10:27:29;15.90;99.90
6758;DHT22;3416;53.074;8.822;2023-02-22T10:30:04;15.40;99.90
6758;DHT22;3416;53.074;8.822;2023-02-22T10:32:40;15.40;99.90
6758;DHT22;3416;53.074;8.822;2023-02-22T10:35:17;15.30;99.90
6758;DHT22;3416;53.074;8.822;2023-02-22T10:37:50;15.00;99.90
6758;DHT22;3416;53.074;8.822;2023-02-22T10:40:20;15.30;99.90
6758;DHT22;3416;53.074;8.822;2023-02-22T10:42:57;15.30;99.90
6758;DHT22;3416;53.074;8.822;2023-02-22T10:45:28;15.40;99.90
6758;DHT22;3416;53.074;8.822;2023-02-22T10:47:57;15.30;99.90
6758;DHT22;3416;53.074;8.822;2023-02-22T10:50:28;15.20;99.90
6758;DHT22;3416;53.074;8.822;2023-02-22T10:52:56;14.70;99.90
6758;DHT22;3416;53.074;8.822;2023-02-22T10:55:23;14.50;99.90
6758;DHT22;3416;53.074;8.822;2023-02-22T10:57:58;14.20;99.90
6758;DHT22;3416;53.074;8.822;2023-02-22T11:00:31;14.20;99.90
6758;DHT22;3416;53.074;8.822;2023-02-22T11:03:04;14.00;99.90
6758;DHT22;3416;53.074;8.822;2023-02-22T11:05:34;14.10;99.90
6758;DHT22;3416;53.074;8.822;2023-02-22T11:08:17;14.40;99.90
6758;DHT22;3416;53.074;8.822;2023-02-22T11:10:49;14.40;99.90
6758;DHT22;3416;53.074;8.822;2023-02-22T11:13:22;14.40;99.90
6758;DHT22;3416;53.074;8.822;2023-02-22T11:15:51;14.50;99.90
6758;DHT22;3416;53.074;8.822;2023-02-22T11:18:23;14.60;99.90
6758;DHT22;3416;53.074;8.822;2023-02-22T11:20:59;14.50;99.90
6758;DHT22;3416;53.074;8.822;2023-02-22T11:23:26;14.60;99.90
6758;DHT22;3416;53.074;8.822;2023-02-22T11:26:02;14.70;99.90
6758;DHT22;3416;53.074;8.822;2023-02-22T11:28:30;14.70;99.90
6758;DHT22;3416;53.074;8.822;2023-02-22T11:31:10;14.80;99.90
6758;DHT22;3416;53.074;8.822;2023-02-22T11:33:39;14.60;99.90
6758;DHT22;3416;53.074;8.822;2023-02-22T11:36:12;14.60;99.90
6758;DHT22;3416;53.074;8.822;2023-02-22T11:38:56;14.60;99.90
6758;DHT22;3416;53.074;8.822;2023-02-22T11:41:28;14.60;99.90
6758;DHT22;3416;53.074;8.822;2023-02-22T11:44:12;14.50;99.90
6758;DHT22;3416;53.074;8.822;2023-02-22T11:46:41;14.50;99.90
6758;DHT22;3416;53.074;8.822;2023-02-22T11:49:11;14.50;99.90
6758;DHT22;3416;53.074;8.822;2023-02-22T11:51:54;14.40;99.90
6758;DHT22;3416;53.074;8.822;2023-02-22T11:54:42;14.40;99.90
6758;DHT22;3416;53.074;8.822;2023-02-22T11:57:26;14.40;99.90
6758;DHT22;3416;53.074;8.822;2023-02-22T12:00:05;14.40;99.90
6758;DHT22;3416;53.074;8.822;2023-02-22T12:02:50;14.30;99.90
6758;DHT22;3416;53.074;8.822;2023-02-22T12:05:30;14.20;99.90
6758;DHT22;3416;53.074;8.822;2023-02-22T12:08:13;14.00;99.90
6758;DHT22;3416;53.074;8.822;2023-02-22T12:10:54;14.00;99.90
6758;DHT22;3416;53.074;8.822;2023-02-22T12:13:35;14.00;99.90
6758;DHT22;3416;53.074;8.822;2023-02-22T12:16:11;14.10;99.90
6758;DHT22;3416;53.074;8.822;2023-02-22T12:18:56;14.10;99.90
6758;DHT22;3416;53.074;8.822;2023-02-22T12:21:25;14.10;99.90
6758;DHT22;3416;53.074;8.822;2023-02-22T12:23:59;14.10;99.90
6758;DHT22;3416;53.074;8.822;2023-02-22T12:26:30;14.10;99.90
6758;DHT22;3416;53.074;8.822;2023-02-22T12:29:03;14.00;99.90
6758;DHT22;3416;53.074;8.822;2023-02-22T12:31:36;14.00;99.90
6758;DHT22;3416;53.074;8.822;2023-02-22T12:34:12;14.00;99.90
6758;DHT22;3416;53.074;8.822;2023-02-22T12:36:47;14.00;99.90
6758;DHT22;3416;53.074;8.822;2023-02-22T12:39:34;14.10;99.90
6758;DHT22;3416;53.074;8.822;2023-02-22T12:42:14;14.10;99.90
6758;DHT22;3416;53.074;8.822;2023-02-22T12:44:45;14.10;99.90
6758;DHT22;3416;53.074;8.822;2023-02-22T12:47:17;14.10;99.90
6758;DHT22;3416;53.074;8.822;2023-02-22T12:49:51;14.20;99.90
6758;DHT22;3416;53.074;8.822;2023-02-22T12:52:35;14.10;99.90
6758;DHT22;3416;53.074;8.822;2023-02-22T12:55:10;14.10;99.90
6758;DHT22;3416;53.074;8.822;2023-02-22T12:57:45;14.10;99.90
6758;DHT22;3416;53.074;8.822;2023-02-22T13:00:16;14.10;99.90
6758;DHT22;3416;53.074;8.822;2023-02-22T13:02:55;14.20;99.90
6758;DHT22;3416;53.074;8.822;2023-02-22T13:05:25;14.30;99.90
6758;DHT22;3416;53.074;8.822;2023-02-22T13:08:09;14.30;99.90
6758;DHT22;3416;53.074;8.822;2023-02-22T13:10:51;14.30;99.90
6758;DHT22;3416;53.074;8.822;2023-02-22T13:13:26;14.30;99.90
6758;DHT22;3416;53.074;8.822;2023-02-22T13:16:00;14.30;99.90
6758;DHT22;3416;53.074;8.822;2023-02-22T13:18:33;14.40;99.90
6758;DHT22;3416;53.074;8.822;2023-02-22T13:21:11;14.30;99.90
6758;DHT22;3416;53.074;8.822;2023-02-22T13:23:46;14.30;99.90
6758;DHT22;3416;53.074;8.822;2023-02-22T13:26:21;14.30;99.90
6758;DHT22;3416;53.074;8.822;2023-02-22T13:28:55;14.30;99.90
6758;DHT22;3416;53.074;8.822;2023-02-22T13:31:50;14.30;99.90
6758;DHT22;3416;53.074;8.822;2023-02-22T13:37:39;14.40;99.90
6758;DHT22;3416;53.074;8.822;2023-02-22T13:40:35;14.40;99.90
6758;DHT22;3416;53.074;8.822;2023-02-22T13:43:24;14.30;99.90
6758;DHT22;3416;53.074;8.822;2023-02-22T13:49:27;14.20;99.90
6758;DHT22;3416;53.074;8.822;2023-02-22T13:52:00;14.30;99.90
6758;DHT22;3416;53.074;8.822;2023-02-22T13:54:38;14.30;99.90
6758;DHT22;3416;53.074;8.822;2023-02-22T13:57:17;14.30;99.90
6758;DHT22;3416;53.074;8.822;2023-02-22T13:59:44;14.30;99.90
6758;DHT22;3416;53.074;8.822;2023-02-22T14:02:32;14.40;99.90
6758;DHT22;3416;53.074;8.822;2023-02-22T14:08:41;14.50;99.90
6758;DHT22;3416;53.074;8.822;2023-02-22T14:14:20;14.40;99.90
6758;DHT22;3416;53.074;8.822;2023-02-22T14:20:23;14.30;99.90
6758;DHT22;3416;53.074;8.822;2023-02-22T14:22:57;14.20;99.90
6758;DHT22;3416;53.074;8.822;2023-02-22T14:25:44;14.30;99.90
6758;DHT22;3416;53.074;8.822;2023-02-22T14:28:32;14.30;99.90
6758;DHT22;3416;53.074;8.822;2023-02-22T14:31:07;14.30;99.90
6758;DHT22;3416;53.074;8.822;2023-02-22T14:33:58;14.30;99.90
6758;DHT22;3416;53.074;8.822;2023-02-22T14:36:29;14.30;99.90
6758;DHT22;3416;53.074;8.822;2023-02-22T14:39:09;14.30;99.90
6758;DHT22;3416;53.074;8.822;2023-02-22T14:41:41;14.30;99.90
6758;DHT22;3416;53.074;8.822;2023-02-22T14:44:14;14.40;99.90
6758;DHT22;3416;53.074;8.822;2023-02-22T14:46:45;14.30;99.90
6758;DHT22;3416;53.074;8.822;2023-02-22T14:49:17;14.30;99.90
6758;DHT22;3416;53.074;8.822;2023-02-22T14:51:50;14.30;99.90
6758;DHT22;3416;53.074;8.822;2023-02-22T14:54:25;14.20;99.90
6758;DHT22;3416;53.074;8.822;2023-02-22T14:57:01;14.20;99.90
6758;DHT22;3416;53.074;8.822;2023-02-22T15:00:00;14.20;99.90
6758;DHT22;3416;53.074;8.822;2023-02-22T15:02:40;14.20;99.90
6758;DHT22;3416;53.074;8.822;2023-02-22T15:05:12;14.20;99.90
6758;DHT22;3416;53.074;8.822;2023-02-22T15:07:49;14.20;99.90
6758;DHT22;3416;53.074;8.822;2023-02-22T15:10:21;14.20;99.90
6758;DHT22;3416;53.074;8.822;2023-02-22T15:12:58;14.10;99.90
6758;DHT22;3416;53.074;8.822;2023-02-22T15:15:38;14.00;99.90
6758;DHT22;3416;53.074;8.822;2023-02-22T15:18:18;13.90;99.90
6758;DHT22;3416;53.074;8.822;2023-02-22T15:20:46;13.90;99.90
6758;DHT22;3416;53.074;8.822;2023-02-22T15:23:21;13.80;99.90
6758;DHT22;3416;53.074;8.822;2023-02-22T15:25:48;13.80;99.90
6758;DHT22;3416;53.074;8.822;2023-02-22T15:28:17;13.70;99.90
6758;DHT22;3416;53.074;8.822;2023-02-22T15:30:44;13.70;99.90
6758;DHT22;3416;53.074;8.822;2023-02-22T15:33:15;13.70;99.90
6758;DHT22;3416;53.074;8.822;2023-02-22T15:35:53;13.70;99.90
6758;DHT22;3416;53.074;8.822;2023-02-22T15:38:25;13.70;99.90
6758;DHT22;3416;53.074;8.822;2023-02-22T15:41:00;13.60;99.90
6758;DHT22;3416;53.074;8.822;2023-02-22T15:43:27;13.60;99.90
6758;DHT22;3416;53.074;8.822;2023-02-22T15:45:57;13.50;99.90
6758;DHT22;3416;53.074;8.822;2023-02-22T15:48:27;13.40;99.90
6758;DHT22;3416;53.074;8.822;2023-02-22T15:51:09;13.50;99.90
6758;DHT22;3416;53.074;8.822;2023-02-22T15:53:41;13.50;99.90
6758;DHT22;3416;53.074;8.822;2023-02-22T15:56:12;13.40;99.90
6758;DHT22;3416;53.074;8.822;2023-02-22T15:58:41;13.50;99.90
6758;DHT22;3416;53.074;8.822;2023-02-22T16:01:11;13.30;99.90
6758;DHT22;3416;53.074;8.822;2023-02-22T16:03:45;13.30;99.90
6758;DHT22;3416;53.074;8.822;2023-02-22T16:06:16;13.30;99.90
6758;DHT22;3416;53.074;8.822;2023-02-22T16:08:48;13.30;99.90
6758;DHT22;3416;53.074;8.822;2023-02-22T16:11:20;13.30;99.90
6758;DHT22;3416;53.074;8.822;2023-02-22T16:13:56;13.30;99.90
6758;DHT22;3416;53.074;8.822;2023-02-22T16:16:29;13.20;99.90
6758;DHT22;3416;53.074;8.822;2023-02-22T16:19:31;13.20;99.90
6758;DHT22;3416;53.074;8.822;2023-02-22T16:22:00;13.20;99.90
6758;DHT22;3416;53.074;8.822;2023-02-22T16:24:30;13.10;99.90
6758;DHT22;3416;53.074;8.822;2023-02-22T16:27:15;13.10;99.90
6758;DHT22;3416;53.074;8.822;2023-02-22T16:29:43;13.10;99.90
6758;DHT22;3416;53.074;8.822;2023-02-22T16:32:11;13.00;99.90
6758;DHT22;3416;53.074;8.822;2023-02-22T16:34:41;13.10;99.90
6758;DHT22;3416;53.074;8.822;2023-02-22T16:37:20;12.90;99.90
6758;DHT22;3416;53.074;8.822;2023-02-22T16:39:48;12.90;99.90
6758;DHT22;3416;53.074;8.822;2023-02-22T16:42:17;12.90;99.90
6758;DHT22;3416;53.074;8.822;2023-02-22T16:44:49;12.90;99.90
6758;DHT22;3416;53.074;8.822;2023-02-22T16:47:18;12.80;99.90
6758;DHT22;3416;53.074;8.822;2023-02-22T16:49:49;12.90;99.90
6758;DHT22;3416;53.074;8.822;2023-02-22T16:52:18;12.90;99.90
6758;DHT22;3416;53.074;8.822;2023-02-22T16:54:46;12.90;99.90
6758;DHT22;3416;53.074;8.822;2023-02-22T16:57:19;12.90;99.90
6758;DHT22;3416;53.074;8.822;2023-02-22T16:59:47;12.80;99.90
6758;DHT22;3416;53.074;8.822;2023-02-22T17:02:17;12.80;99.90
6758;DHT22;3416;53.074;8.822;2023-02-22T17:04:45;12.70;99.90
6758;DHT22;3416;53.074;8.822;2023-02-22T17:07:17;12.60;99.90
6758;DHT22;3416;53.074;8.822;2023-02-22T17:09:45;12.60;99.90
6758;DHT22;3416;53.074;8.822;2023-02-22T17:12:12;12.60;99.90
6758;DHT22;3416;53.074;8.822;2023-02-22T17:14:39;12.60;99.90
6758;DHT22;3416;53.074;8.822;2023-02-22T17:17:11;12.60;99.90
6758;DHT22;3416;53.074;8.822;2023-02-22T17:19:38;12.50;99.90
6758;DHT22;3416;53.074;8.822;2023-02-22T17:22:05;12.50;99.90
6758;DHT22;3416;53.074;8.822;2023-02-22T17:24:35;12.50;99.90
6758;DHT22;3416;53.074;8.822;2023-02-22T17:27:03;12.50;99.90
6758;DHT22;3416;53.074;8.822;2023-02-22T17:29:30;12.50;99.90
6758;DHT22;3416;53.074;8.822;2023-02-22T17:31:57;12.50;99.90
6758;DHT22;3416;53.074;8.822;2023-02-22T17:34:24;12.50;99.90
6758;DHT22;3416;53.074;8.822;2023-02-22T17:36:53;12.50;99.90
6758;DHT22;3416;53.074;8.822;2023-02-22T17:39:20;12.50;99.90
6758;DHT22;3416;53.074;8.822;2023-02-22T17:41:48;12.50;99.90
6758;DHT22;3416;53.074;8.822;2023-02-22T17:44:21;12.50;99.90
6758;DHT22;3416;53.074;8.822;2023-02-22T17:46:49;12.60;99.90
6758;DHT22;3416;53.074;8.822;2023-02-22T17:49:17;12.50;99.90
6758;DHT22;3416;53.074;8.822;2023-02-22T17:51:49;12.50;99.90
6758;DHT22;3416;53.074;8.822;2023-02-22T17:54:17;12.40;99.90
6758;DHT22;3416;53.074;8.822;2023-02-22T17:56:45;12.40;99.90
6758;DHT22;3416;53.074;8.822;2023-02-22T17:59:13;12.40;99.90
6758;DHT22;3416;53.074;8.822;2023-02-22T18:01:40;12.40;99.90
6758;DHT22;3416;53.074;8.822;2023-02-22T18:04:08;12.30;99.90
6758;DHT22;3416;53.074;8.822;2023-02-22T18:06:36;12.30;99.90
6758;DHT22;3416;53.074;8.822;2023-02-22T18:09:04;12.30;99.90
6758;DHT22;3416;53.074;8.822;2023-02-22T18:11:36;12.30;99.90
6758;DHT22;3416;53.074;8.822;2023-02-22T18:14:05;12.20;99.90
6758;DHT22;3416;53.074;8.822;2023-02-22T18:16:35;12.20;99.90
6758;DHT22;3416;53.074;8.822;2023-02-22T18:19:05;12.30;99.90
6758;DHT22;3416;53.074;8.822;2023-02-22T18:21:32;12.30;99.90
6758;DHT22;3416;53.074;8.822;2023-02-22T18:24:03;12.30;99.90
6758;DHT22;3416;53.074;8.822;2023-02-22T18:26:30;12.40;99.90
6758;DHT22;3416;53.074;8.822;2023-02-22T18:28:57;12.20;99.90
6758;DHT22;3416;53.074;8.822;2023-02-22T18:31:27;12.20;99.90
6758;DHT22;3416;53.074;8.822;2023-02-22T18:33:55;12.10;99.90
6758;DHT22;3416;53.074;8.822;2023-02-22T18:36:23;12.10;99.90
6758;DHT22;3416;53.074;8.822;2023-02-22T18:38:52;12.20;99.90
6758;DHT22;3416;53.074;8.822;2023-02-22T18:41:21;12.00;99.90
6758;DHT22;3416;53.074;8.822;2023-02-22T18:43:52;12.20;99.90
6758;DHT22;3416;53.074;8.822;2023-02-22T18:46:23;12.20;99.90
6758;DHT22;3416;53.074;8.822;2023-02-22T18:48:51;12.10;99.90
6758;DHT22;3416;53.074;8.822;2023-02-22T18:51:20;12.10;99.90
6758;DHT22;3416;53.074;8.822;2023-02-22T18:53:47;12.10;99.90
6758;DHT22;3416;53.074;8.822;2023-02-22T18:56:19;12.10;99.90
6758;DHT22;3416;53.074;8.822;2023-02-22T18:58:46;12.10;99.90
6758;DHT22;3416;53.074;8.822;2023-02-22T19:01:17;12.10;99.90
6758;DHT22;3416;53.074;8.822;2023-02-22T19:03:45;12.10;99.90
6758;DHT22;3416;53.074;8.822;2023-02-22T19:06:13;12.10;99.90
6758;DHT22;3416;53.074;8.822;2023-02-22T19:08:42;12.10;99.90
6758;DHT22;3416;53.074;8.822;2023-02-22T19:11:11;12.00;99.90
6758;DHT22;3416;53.074;8.822;2023-02-22T19:13:42;12.10;99.90
6758;DHT22;3416;53.074;8.822;2023-02-22T19:16:11;12.10;99.90
6758;DHT22;3416;53.074;8.822;2023-02-22T19:18:38;12.20;99.90
6758;DHT22;3416;53.074;8.822;2023-02-22T19:21:12;12.10;99.90
6758;DHT22;3416;53.074;8.822;2023-02-22T19:23:41;12.20;99.90
6758;DHT22;3416;53.074;8.822;2023-02-22T19:26:15;12.10;99.90
6758;DHT22;3416;53.074;8.822;2023-02-22T19:28:43;12.10;99.90
6758;DHT22;3416;53.074;8.822;2023-02-22T19:31:14;12.10;99.90
6758;DHT22;3416;53.074;8.822;2023-02-22T19:33:41;12.00;99.90
6758;DHT22;3416;53.074;8.822;2023-02-22T19:36:09;12.00;99.90
6758;DHT22;3416;53.074;8.822;2023-02-22T19:38:37;11.90;99.90
6758;DHT22;3416;53.074;8.822;2023-02-22T19:41:07;11.90;99.90
6758;DHT22;3416;53.074;8.822;2023-02-22T19:43:35;11.90;99.90
6758;DHT22;3416;53.074;8.822;2023-02-22T19:46:03;12.00;99.90
6758;DHT22;3416;53.074;8.822;2023-02-22T19:48:30;12.00;99.90
6758;DHT22;3416;53.074;8.822;2023-02-22T19:51:02;12.00;99.90
6758;DHT22;3416;53.074;8.822;2023-02-22T19:53:29;11.90;99.90
6758;DHT22;3416;53.074;8.822;2023-02-22T19:55:56;11.80;99.90
6758;DHT22;3416;53.074;8.822;2023-02-22T19:58:24;11.70;99.90
6758;DHT22;3416;53.074;8.822;2023-02-22T20:00:52;11.60;99.90
6758;DHT22;3416;53.074;8.822;2023-02-22T20:03:19;11.60;99.90
6758;DHT22;3416;53.074;8.822;2023-02-22T20:05:50;11.60;99.90
6758;DHT22;3416;53.074;8.822;2023-02-22T20:08:17;11.60;99.90
6758;DHT22;3416;53.074;8.822;2023-02-22T20:10:46;11.50;99.90
6758;DHT22;3416;53.074;8.822;2023-02-22T20:13:12;11.50;99.90
6758;DHT22;3416;53.074;8.822;2023-02-22T20:15:45;11.50;99.90
6758;DHT22;3416;53.074;8.822;2023-02-22T20:18:14;11.50;99.90
6758;DHT22;3416;53.074;8.822;2023-02-22T20:20:41;11.60;99.90
6758;DHT22;3416;53.074;8.822;2023-02-22T20:23:08;11.50;99.90
6758;DHT22;3416;53.074;8.822;2023-02-22T20:25:35;11.60;99.90
6758;DHT22;3416;53.074;8.822;2023-02-22T20:28:02;11.40;99.90